Time;durP1;ratioP1;P1;durP2;ratioP2;P2;SDS_P1;SDS_P2;PMS_P1;PMS_P2;Temp;Humidity;BMP_temperature;BMP_pressure;BME280_temperature;BME280_humidity;BME280_pressure;Samples;Min_cycle;Max_cycle;Signal;HPM_P1;HPM_P2
2022/03/29 00:00:24;;;;;;;34.70;23.77;;;11.30;94.10;;;;;;5054170;28;20044;-77
2022/03/29 00:02:50;;;;;;;33.90;24.77;;;11.10;94.50;;;;;;5054253;28;20025;-76
2022/03/29 00:05:15;;;;;;;33.33;24.45;;;11.00;94.80;;;;;;5053975;28;20116;-78
2022/03/29 00:07:41;;;;;;;27.75;22.75;;;10.80;95.00;;;;;;5053429;28;20036;-78
2022/03/29 00:10:07;;;;;;;38.55;26.10;;;10.80;95.20;;;;;;5053735;28;20037;-78
2022/03/29 00:12:34;;;;;;;32.92;24.98;;;10.80;95.10;;;;;;5054214;28;20021;-79
2022/03/29 00:15:00;;;;;;;34.58;26.48;;;10.70;95.20;;;;;;5053722;28;20032;-79
2022/03/29 00:17:26;;;;;;;36.17;26.15;;;10.60;95.40;;;;;;5053037;28;20403;-79
2022/03/29 00:19:51;;;;;;;39.53;27.77;;;10.50;95.80;;;;;;5053503;28;20041;-79
2022/03/29 00:22:17;;;;;;;37.42;28.52;;;10.50;96.00;;;;;;5053929;28;20116;-79
2022/03/29 00:24:42;;;;;;;36.95;27.02;;;10.60;95.90;;;;;;5053673;28;20056;-78
2022/03/29 00:27:08;;;;;;;34.90;26.25;;;10.50;95.90;;;;;;5053637;28;20111;-78
2022/03/29 00:29:33;;;;;;;36.95;28.83;;;10.60;95.80;;;;;;5053973;28;20090;-79
2022/03/29 00:31:59;;;;;;;38.58;29.83;;;10.80;95.50;;;;;;5053547;28;20418;-78
2022/03/29 00:34:25;;;;;;;38.65;29.27;;;10.70;95.50;;;;;;5053764;28;20052;-78
2022/03/29 00:36:50;;;;;;;42.90;30.70;;;10.40;96.10;;;;;;5053509;28;20028;-78
2022/03/29 00:39:16;;;;;;;42.17;31.55;;;10.20;96.80;;;;;;5053725;28;20029;-78
2022/03/29 00:41:41;;;;;;;46.58;32.63;;;10.00;97.10;;;;;;5053502;28;20063;-78
2022/03/29 00:44:07;;;;;;;40.58;30.85;;;10.00;97.30;;;;;;5053112;28;20021;-78
2022/03/29 00:46:34;;;;;;;37.65;28.52;;;10.00;97.50;;;;;;5053201;28;20028;-78
2022/03/29 00:48:59;;;;;;;46.67;31.35;;;10.10;97.40;;;;;;5052629;28;20033;-78
2022/03/29 00:51:26;;;;;;;44.13;31.77;;;10.30;97.20;;;;;;5053548;28;20476;-78
2022/03/29 00:53:51;;;;;;;43.00;30.42;;;10.20;97.30;;;;;;5053585;28;20032;-78
2022/03/29 00:56:21;;;;;;;49.25;32.40;;;10.20;97.40;;;;;;5052768;28;20021;-79
2022/03/29 00:58:48;;;;;;;45.30;31.73;;;10.10;97.40;;;;;;5053313;28;20083;-79
2022/03/29 01:01:14;;;;;;;42.88;31.45;;;9.90;97.90;;;;;;5052896;28;20037;-77
2022/03/29 01:03:42;;;;;;;41.88;31.52;;;9.80;98.20;;;;;;5052961;28;20021;-76
2022/03/29 01:06:11;;;;;;;42.05;29.58;;;9.90;98.20;;;;;;5052688;28;20358;-77
2022/03/29 01:08:36;;;;;;;41.35;29.38;;;10.10;98.10;;;;;;5052528;28;20037;-77
2022/03/29 01:11:05;;;;;;;37.08;27.90;;;10.20;98.10;;;;;;5052651;28;20033;-77
2022/03/29 01:13:31;;;;;;;43.75;30.33;;;10.30;97.50;;;;;;5052758;28;20079;-77
2022/03/29 01:17:38;;;;;;;43.50;32.42;;;10.40;97.10;;;;;;5052792;28;20072;-77
2022/03/29 01:18:44;;;;;;;42.25;31.23;;;10.20;97.20;;;;;;5052552;28;20033;-77
2022/03/29 01:21:14;;;;;;;47.35;32.28;;;9.90;97.90;;;;;;5052795;28;20038;-77
2022/03/29 01:23:39;;;;;;;46.03;31.02;;;9.80;98.30;;;;;;5052609;28;20036;-77
2022/03/29 01:26:05;;;;;;;46.70;34.05;;;9.60;98.80;;;;;;5052501;28;20028;-76
2022/03/29 01:28:31;;;;;;;42.88;31.15;;;9.50;99.10;;;;;;5052492;28;20468;-76
2022/03/29 01:30:56;;;;;;;44.22;32.85;;;9.40;99.60;;;;;;5052123;28;20101;-77
2022/03/29 01:33:22;;;;;;;48.72;33.15;;;9.40;99.70;;;;;;5052334;28;20112;-77
2022/03/29 01:35:48;;;;;;;45.30;32.45;;;9.40;99.90;;;;;;5053081;28;20043;-77
2022/03/29 01:38:14;;;;;;;42.15;31.40;;;9.60;99.70;;;;;;5051923;28;20033;-77
2022/03/29 01:40:40;;;;;;;44.03;31.55;;;9.80;99.30;;;;;;5052616;28;20033;-77
2022/03/29 01:43:05;;;;;;;39.35;30.02;;;10.00;98.80;;;;;;5051920;28;20035;-77
2022/03/29 01:45:32;;;;;;;42.63;30.02;;;10.10;98.40;;;;;;5052139;28;20116;-76
2022/03/29 01:47:59;;;;;;;42.40;31.05;;;10.30;98.10;;;;;;5051843;28;20025;-76
2022/03/29 01:50:25;;;;;;;41.20;30.17;;;10.30;97.80;;;;;;5052032;28;21307;-76
2022/03/29 01:52:51;;;;;;;41.88;32.08;;;10.20;97.90;;;;;;5052548;28;20145;-77
2022/03/29 01:55:18;;;;;;;40.60;31.00;;;10.00;98.10;;;;;;5051857;28;20465;-76
2022/03/29 01:57:44;;;;;;;40.22;29.85;;;9.90;98.50;;;;;;5051288;28;20083;-76
2022/03/29 02:02:57;;;;;;;39.10;29.20;;;9.70;98.90;;;;;;5051716;28;20040;-76
2022/03/29 02:05:23;;;;;;;42.78;31.30;;;9.70;99.30;;;;;;5051462;28;20537;-76
2022/03/29 02:07:50;;;;;;;42.33;29.52;;;9.60;99.40;;;;;;5052174;28;20472;-76
2022/03/29 02:10:17;;;;;;;39.97;29.45;;;9.70;99.50;;;;;;5051654;28;20040;-77
2022/03/29 02:12:43;;;;;;;40.45;30.65;;;9.90;99.20;;;;;;5052279;28;20468;-77
2022/03/29 02:15:09;;;;;;;39.17;29.50;;;10.00;98.80;;;;;;5051385;28;20040;-77
2022/03/29 02:17:35;;;;;;;47.05;29.90;;;10.10;98.40;;;;;;5051724;28;20032;-77
2022/03/29 02:20:01;;;;;;;53.17;31.08;;;10.00;98.40;;;;;;5050479;28;20033;-77
2022/03/29 02:22:27;;;;;;;43.97;30.85;;;9.90;98.60;;;;;;5051558;28;20468;-77
2022/03/29 02:24:52;;;;;;;86.07;32.72;;;9.80;98.90;;;;;;5052093;28;20029;-77
2022/03/29 02:27:18;;;;;;;48.95;33.25;;;9.60;99.40;;;;;;5051521;28;20041;-76
2022/03/29 02:29:43;;;;;;;50.15;32.75;;;9.40;99.80;;;;;;5051715;28;20082;-76
2022/03/29 02:32:09;;;;;;;45.55;29.85;;;9.30;99.90;;;;;;5051752;28;20032;-76
2022/03/29 02:34:35;;;;;;;43.63;30.60;;;9.40;99.90;;;;;;5051961;28;20029;-76
2022/03/29 02:37:00;;;;;;;41.08;31.20;;;9.60;99.90;;;;;;5051638;28;20192;-77
2022/03/29 02:39:26;;;;;;;45.63;31.52;;;9.60;99.80;;;;;;5051432;28;20025;-77
2022/03/29 02:41:51;;;;;;;42.03;29.45;;;9.80;99.70;;;;;;5051820;28;20025;-76
2022/03/29 02:44:17;;;;;;;38.25;29.15;;;10.10;99.30;;;;;;5051276;28;20021;-76
2022/03/29 02:46:44;;;;;;;39.92;29.08;;;10.30;98.90;;;;;;5051779;28;20108;-78
2022/03/29 02:49:10;;;;;;;46.97;29.52;;;10.40;98.20;;;;;;5051941;28;20033;-77
2022/03/29 02:51:36;;;;;;;39.47;30.05;;;10.40;97.70;;;;;;5051481;28;20025;-78
2022/03/29 02:54:02;;;;;;;42.72;29.55;;;10.20;97.90;;;;;;5051513;28;20124;-78
2022/03/29 02:56:28;;;;;;;35.38;26.80;;;9.90;98.50;;;;;;5050997;28;20021;-78
2022/03/29 02:58:54;;;;;;;39.80;28.20;;;10.00;98.70;;;;;;5051624;28;20065;-78
2022/03/29 03:01:20;;;;;;;41.33;27.63;;;10.00;98.50;;;;;;5051574;28;20067;-78
2022/03/29 03:03:45;;;;;;;44.70;29.75;;;10.10;98.40;;;;;;5051255;28;20100;-78
2022/03/29 03:06:11;;;;;;;36.40;28.42;;;9.90;98.50;;;;;;5051478;28;20032;-78
2022/03/29 03:08:37;;;;;;;35.08;26.30;;;9.90;99.00;;;;;;5051083;28;20378;-78
2022/03/29 03:11:03;;;;;;;36.30;27.90;;;10.00;98.90;;;;;;5053007;28;20028;-78
2022/03/29 03:13:29;;;;;;;30.98;24.88;;;10.20;98.50;;;;;;5055601;28;20035;-76
2022/03/29 03:15:55;;;;;;;33.80;26.42;;;10.30;98.50;;;;;;5052079;28;20021;-77
2022/03/29 03:18:20;;;;;;;34.95;27.08;;;10.50;97.80;;;;;;5055178;28;20025;-77
2022/03/29 03:20:46;;;;;;;31.45;24.83;;;10.40;97.60;;;;;;5054877;28;20454;-78
2022/03/29 03:23:12;;;;;;;36.08;25.10;;;10.40;97.80;;;;;;5054676;28;20036;-77
2022/03/29 03:25:38;;;;;;;32.63;24.48;;;10.50;97.60;;;;;;5055064;28;20039;-78
2022/03/29 03:28:04;;;;;;;32.78;25.35;;;10.30;97.60;;;;;;5052526;28;20025;-77
2022/03/29 03:30:30;;;;;;;37.92;26.98;;;10.10;98.00;;;;;;5054749;28;20079;-78
2022/03/29 03:32:55;;;;;;;32.83;25.00;;;10.00;98.20;;;;;;5054733;28;20060;-77
2022/03/29 03:35:21;;;;;;;35.22;25.83;;;9.90;98.40;;;;;;5055243;28;20102;-77
2022/03/29 03:37:48;;;;;;;38.35;25.73;;;9.90;98.60;;;;;;5054841;28;20104;-77
2022/03/29 03:40:13;;;;;;;34.45;25.25;;;9.70;98.90;;;;;;5054408;28;20036;-77
2022/03/29 03:42:40;;;;;;;37.28;26.95;;;9.70;99.20;;;;;;5054549;28;20075;-77
2022/03/29 03:45:07;;;;;;;42.80;24.90;;;9.60;99.30;;;;;;5054597;28;20377;-76
2022/03/29 03:47:32;;;;;;;32.67;24.75;;;9.70;99.30;;;;;;5053224;28;20041;-77
2022/03/29 03:49:58;;;;;;;29.38;22.95;;;9.80;99.00;;;;;;5054434;28;20077;-77
2022/03/29 03:52:24;;;;;;;35.22;24.42;;;10.00;98.70;;;;;;5054527;28;20472;-77
2022/03/29 03:54:50;;;;;;;36.60;24.50;;;10.10;98.20;;;;;;5054707;28;20108;-77
2022/03/29 03:57:15;;;;;;;31.17;23.67;;;10.00;98.20;;;;;;5054602;28;20533;-78
2022/03/29 03:59:41;;;;;;;37.42;26.17;;;10.10;98.20;;;;;;5054205;28;20524;-77
2022/03/29 04:02:07;;;;;;;34.08;25.25;;;10.00;98.30;;;;;;5054099;28;20053;-77
2022/03/29 04:04:32;;;;;;;33.78;25.27;;;10.00;98.50;;;;;;5054570;28;20029;-78
2022/03/29 04:06:58;;;;;;;32.65;25.98;;;10.00;98.50;;;;;;5054519;28;20017;-78
2022/03/29 04:09:24;;;;;;;34.92;26.50;;;9.90;98.60;;;;;;5053219;28;20037;-77
2022/03/29 04:11:51;;;;;;;34.95;25.73;;;9.80;99.00;;;;;;5053975;28;20079;-78
2022/03/29 04:14:17;;;;;;;33.70;23.70;;;9.80;99.10;;;;;;5053754;28;20048;-75
2022/03/29 04:16:42;;;;;;;36.17;26.45;;;9.90;99.00;;;;;;5053559;28;20025;-77
2022/03/29 04:19:08;;;;;;;36.10;25.67;;;10.00;98.70;;;;;;5053935;28;20025;-77
2022/03/29 04:21:33;;;;;;;35.55;26.27;;;9.90;98.70;;;;;;5053107;28;20087;-78
2022/03/29 04:23:59;;;;;;;35.03;25.75;;;9.70;99.00;;;;;;5053535;28;20021;-78
2022/03/29 04:26:25;;;;;;;36.88;26.85;;;9.50;99.40;;;;;;5053934;28;20029;-77
2022/03/29 04:28:50;;;;;;;37.28;26.13;;;9.50;99.80;;;;;;5053800;28;20039;-78
2022/03/29 04:31:16;;;;;;;39.15;26.48;;;9.50;99.80;;;;;;5054159;28;20029;-78
2022/03/29 04:33:44;;;;;;;33.45;24.48;;;9.60;99.60;;;;;;5053563;28;20468;-78
2022/03/29 04:36:09;;;;;;;33.10;24.20;;;9.70;99.50;;;;;;5053503;28;20029;-78
2022/03/29 04:38:35;;;;;;;37.30;27.00;;;9.80;99.20;;;;;;5053533;28;20438;-77
2022/03/29 04:41:01;;;;;;;36.10;26.77;;;9.90;99.10;;;;;;5053468;28;20032;-77
2022/03/29 04:43:26;;;;;;;37.47;26.90;;;10.00;99.10;;;;;;5053155;28;20021;-78
2022/03/29 04:45:52;;;;;;;35.92;26.35;;;9.90;99.20;;;;;;5053478;28;20017;-77
2022/03/29 04:48:18;;;;;;;39.85;26.20;;;9.70;99.40;;;;;;5053452;28;20017;-77
2022/03/29 04:50:43;;;;;;;39.50;27.10;;;9.90;99.40;;;;;;5052650;28;20124;-77
2022/03/29 04:53:09;;;;;;;40.58;27.85;;;9.90;99.20;;;;;;5053074;28;20040;-77
2022/03/29 04:55:34;;;;;;;40.75;28.10;;;9.90;99.20;;;;;;5053123;28;20028;-77
2022/03/29 04:58:00;;;;;;;38.17;26.63;;;10.00;99.20;;;;;;5052967;28;20400;-77
2022/03/29 05:00:27;;;;;;;41.05;27.15;;;9.90;99.20;;;;;;5053400;28;20041;-77
2022/03/29 05:02:53;;;;;;;36.28;27.33;;;10.00;99.10;;;;;;5053152;28;20104;-76
2022/03/29 05:05:19;;;;;;;38.10;25.13;;;10.00;99.20;;;;;;5052943;28;20146;-77
2022/03/29 05:07:45;;;;;;;39.78;28.33;;;10.10;99.00;;;;;;5052924;28;20025;-77
2022/03/29 05:10:11;;;;;;;46.53;27.80;;;10.20;98.80;;;;;;5052959;28;20041;-77
2022/03/29 05:12:48;;;;;;;39.83;27.85;;;10.00;99.00;;;;;;5052927;28;20028;-77
2022/03/29 05:15:16;;;;;;;39.47;27.73;;;9.90;99.20;;;;;;5052475;28;20473;-76
2022/03/29 05:17:43;;;;;;;36.80;26.50;;;9.80;99.50;;;;;;5045701;28;20021;-77
2022/03/29 05:20:09;;;;;;;34.45;25.30;;;9.90;99.60;;;;;;5052370;28;20044;-77
2022/03/29 05:22:51;;;;;;;53.92;29.42;;;10.10;99.40;;;;;;5052800;28;20021;-76
2022/03/29 05:25:19;;;;;;;40.20;28.00;;;10.00;99.00;;;;;;5052101;28;20028;-77
2022/03/29 05:27:46;;;;;;;35.65;26.83;;;9.90;99.20;;;;;;5052246;28;20036;-77
2022/03/29 05:30:12;;;;;;;34.47;26.27;;;9.90;99.40;;;;;;5052545;28;20032;-80
2022/03/29 05:32:38;;;;;;;43.13;28.52;;;10.00;99.40;;;;;;5051405;28;20036;-79
2022/03/29 05:35:07;;;;;;;41.92;26.92;;;10.00;99.20;;;;;;5052432;28;20029;-77
2022/03/29 05:37:33;;;;;;;45.95;27.80;;;10.00;99.20;;;;;;5051370;28;20037;-76
2022/03/29 05:39:59;;;;;;;40.55;26.60;;;10.00;99.20;;;;;;5052380;28;20040;-76
2022/03/29 05:42:25;;;;;;;49.75;28.83;;;10.00;99.30;;;;;;5052065;28;20025;-76
2022/03/29 05:44:51;;;;;;;74.65;30.58;;;9.80;99.40;;;;;;5051917;28;20093;-76
2022/03/29 05:50:01;;;;;;;46.63;28.55;;;9.40;99.90;;;;;;5050046;28;20032;-76
2022/03/29 05:52:28;;;;;;;39.67;26.95;;;9.50;99.90;;;;;;5051789;28;20017;-76
2022/03/29 05:54:54;;;;;;;48.17;28.75;;;9.50;99.90;;;;;;5051714;28;20111;-76
2022/03/29 05:57:20;;;;;;;41.53;28.00;;;9.60;99.90;;;;;;5051843;28;20123;-76
2022/03/29 05:59:45;;;;;;;41.67;28.02;;;9.60;99.90;;;;;;5052036;28;20037;-76
2022/03/29 06:02:12;;;;;;;48.10;29.23;;;9.60;99.90;;;;;;5051669;28;20035;-77
2022/03/29 06:04:38;;;;;;;53.30;30.00;;;9.60;99.90;;;;;;5051092;28;20048;-75
2022/03/29 06:07:04;;;;;;;69.15;30.65;;;9.40;99.90;;;;;;5051881;28;20033;-75
2022/03/29 06:09:31;;;;;;;57.25;29.85;;;9.30;99.90;;;;;;5051015;28;20564;-75
2022/03/29 06:11:56;;;;;;;47.05;30.38;;;9.20;99.90;;;;;;5051533;28;20052;-81
2022/03/29 06:14:23;;;;;;;46.38;29.02;;;9.30;99.90;;;;;;5051734;28;20032;-80
2022/03/29 06:16:48;;;;;;;54.70;30.08;;;9.50;99.90;;;;;;5051223;28;20432;-81
2022/03/29 06:19:14;;;;;;;41.53;26.15;;;9.60;99.90;;;;;;5050842;28;20068;-81
2022/03/29 06:21:40;;;;;;;64.88;31.23;;;9.60;99.90;;;;;;5051341;28;20025;-80
2022/03/29 06:24:08;;;;;;;54.80;31.70;;;9.70;99.90;;;;;;5051296;28;20486;-81
2022/03/29 06:26:37;;;;;;;50.67;31.95;;;9.60;99.90;;;;;;5051274;28;20084;-81
2022/03/29 06:29:03;;;;;;;44.85;29.58;;;9.40;99.90;;;;;;5049480;28;20041;-80
2022/03/29 06:31:29;;;;;;;38.15;26.45;;;9.40;99.90;;;;;;5052000;28;20025;-80
2022/03/29 06:33:55;;;;;;;48.15;29.40;;;9.40;99.90;;;;;;5052551;28;20032;-79
2022/03/29 06:36:20;;;;;;;46.38;30.45;;;9.60;99.90;;;;;;5050420;28;20090;-79
2022/03/29 06:38:46;;;;;;;48.90;32.00;;;9.60;99.90;;;;;;5048918;28;20479;-79
2022/03/29 06:41:13;;;;;;;52.95;31.90;;;9.50;99.90;;;;;;5051308;28;20039;-79
2022/03/29 06:43:40;;;;;;;36.33;25.52;;;9.50;99.90;;;;;;5051120;28;20495;-79
2022/03/29 06:46:08;;;;;;;47.83;31.73;;;9.70;99.90;;;;;;5056402;28;20033;-80
2022/03/29 06:48:35;;;;;;;43.00;28.77;;;9.90;99.90;;;;;;5055775;28;20024;-79
2022/03/29 06:51:01;;;;;;;47.05;30.02;;;9.90;99.90;;;;;;5055496;28;20462;-79
2022/03/29 06:53:26;;;;;;;39.55;26.88;;;10.00;99.90;;;;;;5055535;28;20052;-80
2022/03/29 06:55:52;;;;;;;43.65;29.42;;;9.90;99.90;;;;;;5054826;28;20376;-80
2022/03/29 06:58:19;;;;;;;44.67;28.67;;;10.00;99.90;;;;;;5055474;28;20025;-83
2022/03/29 07:00:44;;;;;;;44.50;29.98;;;9.90;99.90;;;;;;5055648;28;20486;-80
2022/03/29 07:03:10;;;;;;;45.65;28.30;;;9.70;99.90;;;;;;5056658;28;20071;-80
2022/03/29 07:05:38;;;;;;;40.42;26.63;;;9.50;99.90;;;;;;5056165;28;20036;-80
2022/03/29 07:08:05;;;;;;;39.92;26.58;;;9.30;99.90;;;;;;5056447;28;20041;-79
2022/03/29 07:13:16;;;;;;;43.45;26.45;;;9.00;99.90;;;;;;5056438;28;20527;-79
2022/03/29 07:15:42;;;;;;;37.65;24.77;;;8.90;99.90;;;;;;5056124;28;20025;-78
2022/03/29 07:18:08;;;;;;;39.22;24.63;;;8.90;99.90;;;;;;5056399;28;20032;-79
2022/03/29 07:20:33;;;;;;;38.05;23.98;;;9.10;99.90;;;;;;5056394;28;20494;-79
2022/03/29 07:22:59;;;;;;;36.05;23.67;;;9.20;99.90;;;;;;5056319;28;20029;-81
2022/03/29 07:25:26;;;;;;;40.28;25.92;;;9.20;99.90;;;;;;5056062;28;20427;-83
2022/03/29 07:27:53;;;;;;;40.13;24.17;;;9.00;99.90;;;;;;5056270;28;20079;-83
2022/03/29 07:30:20;;;;;;;44.25;26.52;;;8.70;99.90;;;;;;5056159;28;20032;-82
2022/03/29 07:32:52;;;;;;;40.45;25.65;;;8.70;99.90;;;;;;5055844;28;20025;-81
2022/03/29 07:35:19;;;;;;;44.43;27.17;;;8.60;99.90;;;;;;5055895;28;20426;-81
2022/03/29 07:37:46;;;;;;;44.55;26.98;;;8.80;99.90;;;;;;5053622;28;20350;-84
2022/03/29 07:40:14;;;;;;;45.40;28.20;;;8.90;99.90;;;;;;5053615;28;20435;-79
2022/03/29 07:42:39;;;;;;;46.35;27.92;;;8.90;99.90;;;;;;5054415;28;20384;-79
2022/03/29 07:45:07;;;;;;;48.53;27.75;;;8.90;99.90;;;;;;5054395;28;20025;-82
2022/03/29 07:47:36;;;;;;;45.13;28.42;;;9.00;99.90;;;;;;5055049;28;20108;-83
2022/03/29 07:50:07;;;;;;;41.67;26.55;;;9.10;99.90;;;;;;5054022;28;20104;-83
2022/03/29 07:52:34;;;;;;;44.38;27.25;;;9.30;99.90;;;;;;5054946;28;20373;-81
2022/03/29 07:55:01;;;;;;;47.00;29.27;;;9.30;99.70;;;;;;5055130;28;20530;-82
2022/03/29 07:57:26;;;;;;;43.80;26.58;;;9.30;99.90;;;;;;5054565;28;20025;-82
2022/03/29 07:59:52;;;;;;;50.03;28.45;;;9.30;99.50;;;;;;5055037;28;20091;-82
2022/03/29 08:02:20;;;;;;;49.80;29.60;;;9.10;99.50;;;;;;5055278;28;20491;-82
2022/03/29 08:04:46;;;;;;;51.30;29.42;;;9.00;99.90;;;;;;5054827;28;20414;-82
2022/03/29 08:07:12;;;;;;;48.78;29.08;;;8.90;99.90;;;;;;5055378;28;20112;-82
2022/03/29 08:09:37;;;;;;;55.35;31.10;;;8.90;99.90;;;;;;5055497;28;20045;-82
2022/03/29 08:12:07;;;;;;;50.35;28.65;;;8.90;99.90;;;;;;5055669;28;20032;-83
2022/03/29 08:14:32;;;;;;;45.28;27.25;;;9.00;99.90;;;;;;5055312;28;20029;-82
2022/03/29 08:16:58;;;;;;;46.30;27.30;;;9.20;99.90;;;;;;5055196;28;20033;-83
2022/03/29 08:19:24;;;;;;;44.85;28.48;;;9.40;99.90;;;;;;5055063;28;20051;-82
2022/03/29 08:21:50;;;;;;;46.45;28.23;;;9.60;99.50;;;;;;5055279;28;20029;-81
2022/03/29 08:24:17;;;;;;;47.72;29.80;;;9.60;99.00;;;;;;5055183;28;20392;-81
2022/03/29 08:26:44;;;;;;;49.63;29.80;;;9.60;98.90;;;;;;5054986;28;20746;-81
2022/03/29 08:29:12;;;;;;;49.80;29.10;;;9.50;98.90;;;;;;5054842;28;20029;-81
2022/03/29 08:31:38;;;;;;;59.08;31.45;;;9.50;99.00;;;;;;5054791;28;20029;-81
2022/03/29 08:34:04;;;;;;;55.92;33.00;;;9.40;99.20;;;;;;5054729;28;20024;-80
2022/03/29 08:36:30;;;;;;;57.42;32.17;;;9.40;99.10;;;;;;5054571;28;20072;-81
2022/03/29 08:38:56;;;;;;;59.22;34.13;;;9.30;99.30;;;;;;5054582;28;20428;-77
2022/03/29 08:41:23;;;;;;;56.67;32.60;;;9.40;99.40;;;;;;5054918;28;20032;-87
2022/03/29 08:43:49;;;;;;;52.80;32.60;;;9.30;99.90;;;;;;5054582;28;20021;-89
2022/03/29 08:46:15;;;;;;;52.33;30.73;;;9.40;99.60;;;;;;5054728;28;20435;-85
2022/03/29 08:48:43;;;;;;;54.05;31.65;;;9.30;99.20;;;;;;5054801;28;20465;-85
2022/03/29 08:51:09;;;;;;;54.78;32.58;;;9.40;99.10;;;;;;5054839;28;20021;-85
2022/03/29 08:53:35;;;;;;;56.70;32.40;;;9.40;99.20;;;;;;5054343;28;20053;-85
2022/03/29 08:56:00;;;;;;;56.15;33.20;;;9.50;98.90;;;;;;5053116;28;20500;-86
2022/03/29 08:58:26;;;;;;;55.47;32.30;;;9.40;99.00;;;;;;5053391;28;20081;-85
2022/03/29 09:00:53;;;;;;;52.25;31.65;;;9.30;99.20;;;;;;5052549;28;20373;-81
2022/03/29 09:03:19;;;;;;;62.70;33.35;;;9.30;99.60;;;;;;5051856;28;20052;-79
2022/03/29 09:05:48;;;;;;;54.80;30.88;;;9.40;99.20;;;;;;5052768;28;20029;-83
2022/03/29 09:08:14;;;;;;;60.22;34.88;;;9.40;99.30;;;;;;5050835;28;20048;-79
2022/03/29 09:10:48;;;;;;;58.30;33.58;;;9.50;98.50;;;;;;5053753;28;20029;-81
2022/03/29 09:13:26;;;;;;;60.33;33.67;;;9.30;98.70;;;;;;5053737;28;20036;-79
2022/03/29 09:16:00;;;;;;;60.50;33.20;;;9.40;99.10;;;;;;5052696;28;20021;-81
2022/03/29 09:18:27;;;;;;;61.20;33.45;;;9.40;98.80;;;;;;5051844;28;20021;-79
2022/03/29 09:21:12;;;;;;;51.00;31.13;;;9.50;98.80;;;;;;5053518;28;20103;-79
2022/03/29 09:23:39;;;;;;;55.58;31.75;;;9.60;98.90;;;;;;5052767;28;20013;-79
2022/03/29 09:26:05;;;;;;;57.78;33.92;;;9.80;98.40;;;;;;5053395;28;20079;-79
2022/03/29 09:28:38;;;;;;;56.70;33.58;;;10.10;98.20;;;;;;5053283;28;20048;-80
2022/03/29 09:31:18;;;;;;;55.17;33.63;;;10.30;97.80;;;;;;5050559;28;20384;-78
2022/03/29 09:33:43;;;;;;;57.80;31.98;;;10.50;97.00;;;;;;5051938;28;20063;-80
2022/03/29 09:36:12;;;;;;;51.95;31.23;;;10.60;96.50;;;;;;5053231;28;20541;-81
2022/03/29 09:38:43;;;;;;;53.08;31.75;;;10.60;96.00;;;;;;5052093;28;20032;-78
2022/03/29 09:41:26;;;;;;;48.42;31.02;;;10.60;95.80;;;;;;5051975;28;20539;-82
2022/03/29 09:43:59;;;;;;;53.10;32.72;;;10.60;96.10;;;;;;5052024;28;20112;-76
2022/03/29 09:46:25;;;;;;;51.08;31.77;;;10.70;95.50;;;;;;5051958;28;20921;-79
2022/03/29 09:48:57;;;;;;;54.00;32.45;;;10.80;95.70;;;;;;5051764;28;20108;-80
2022/03/29 09:51:26;;;;;;;60.97;31.98;;;10.90;95.50;;;;;;5052109;28;20032;-79
2022/03/29 09:53:54;;;;;;;57.13;31.23;;;11.10;95.50;;;;;;5051702;28;20086;-80
2022/03/29 09:56:28;;;;;;;50.00;31.30;;;11.30;94.70;;;;;;5051939;28;20033;-81
2022/03/29 09:59:11;;;;;;;43.10;26.23;;;11.40;94.10;;;;;;5052615;28;20029;-81
2022/03/29 10:01:47;;;;;;;48.95;30.80;;;11.50;94.00;;;;;;5051284;28;20048;-83
2022/03/29 10:04:16;;;;;;;48.83;30.65;;;11.70;93.20;;;;;;5051864;28;20737;-81
2022/03/29 10:06:43;;;;;;;49.90;30.90;;;11.70;92.30;;;;;;5049489;28;20109;-82
2022/03/29 10:09:27;;;;;;;51.60;32.28;;;11.50;92.60;;;;;;5048398;28;20163;-83
2022/03/29 10:11:58;;;;;;;50.35;32.33;;;11.50;92.60;;;;;;5050616;28;20071;-81
2022/03/29 10:14:27;;;;;;;57.10;33.75;;;11.50;92.80;;;;;;5051547;28;20072;-91
2022/03/29 10:16:54;;;;;;;56.08;33.20;;;11.50;93.20;;;;;;5051313;28;20018;-82
2022/03/29 10:19:21;;;;;;;51.30;33.92;;;11.60;93.90;;;;;;5050725;28;20387;-82
2022/03/29 10:21:47;;;;;;;49.85;32.08;;;11.70;92.90;;;;;;5051252;28;20116;-81
2022/03/29 10:24:14;;;;;;;49.60;31.13;;;11.70;93.10;;;;;;5051453;28;20075;-82
2022/03/29 10:26:45;;;;;;;53.00;32.28;;;12.00;92.70;;;;;;5051910;28;20395;-82
2022/03/29 10:29:19;;;;;;;50.25;32.50;;;12.20;92.20;;;;;;5051482;28;20028;-82
2022/03/29 10:31:53;;;;;;;50.80;32.95;;;12.30;91.50;;;;;;5051238;28;20025;-82
2022/03/29 10:34:37;;;;;;;58.03;34.10;;;12.50;91.20;;;;;;5050860;28;20468;-82
2022/03/29 10:37:21;;;;;;;50.45;32.50;;;12.70;90.70;;;;;;5050331;28;20040;-83
2022/03/29 10:40:03;;;;;;;51.13;33.13;;;12.80;90.50;;;;;;5052264;28;20090;-81
2022/03/29 10:42:36;;;;;;;50.38;31.52;;;12.80;90.10;;;;;;5052860;28;20104;-82
2022/03/29 10:45:05;;;;;;;48.08;30.75;;;13.00;90.60;;;;;;5052610;28;20049;-81
2022/03/29 10:47:31;;;;;;;49.28;30.25;;;13.30;90.50;;;;;;5052696;28;20021;-82
2022/03/29 10:49:57;;;;;;;48.58;33.00;;;13.50;88.70;;;;;;5052914;28;20021;-82
2022/03/29 10:52:23;;;;;;;48.78;31.35;;;13.30;86.50;;;;;;5053037;28;20032;-81
2022/03/29 10:54:49;;;;;;;48.47;30.35;;;13.40;87.30;;;;;;5052732;28;20024;-81
2022/03/29 10:57:31;;;;;;;48.33;31.85;;;13.60;86.90;;;;;;5052637;28;20032;-81
2022/03/29 11:00:10;;;;;;;43.67;29.73;;;13.80;84.20;;;;;;5052664;28;20029;-82
2022/03/29 11:02:36;;;;;;;47.35;29.98;;;14.00;83.90;;;;;;5052583;28;20047;-82
2022/03/29 11:05:12;;;;;;;48.50;30.80;;;14.10;83.10;;;;;;5052377;28;20104;-82
2022/03/29 11:07:37;;;;;;;48.15;31.52;;;14.10;84.40;;;;;;5052320;28;20037;-81
2022/03/29 11:10:23;;;;;;;46.83;29.65;;;14.20;81.90;;;;;;5052622;28;20496;-82
2022/03/29 11:12:51;;;;;;;47.72;30.13;;;14.10;82.10;;;;;;5052579;28;20096;-82
2022/03/29 11:15:47;;;;;;;43.13;30.10;;;14.10;81.20;;;;;;5052283;28;20461;-82
2022/03/29 11:18:30;;;;;;;44.78;29.13;;;14.40;81.60;;;;;;5051494;28;20040;-82
2022/03/29 11:21:02;;;;;;;43.90;29.27;;;14.90;81.30;;;;;;5051538;28;20037;-82
2022/03/29 11:23:34;;;;;;;44.92;29.85;;;15.10;81.00;;;;;;5051809;28;20036;-82
2022/03/29 11:26:14;;;;;;;40.53;28.47;;;15.30;78.00;;;;;;5051850;28;20105;-82
2022/03/29 11:28:52;;;;;;;44.20;31.33;;;15.50;76.60;;;;;;5052059;28;20017;-80
2022/03/29 11:31:19;;;;;;;47.45;32.72;;;15.60;77.00;;;;;;5052896;28;20477;-81
2022/03/29 11:33:49;;;;;;;46.60;32.33;;;15.50;74.80;;;;;;5056216;28;20029;-81
2022/03/29 11:36:15;;;;;;;44.25;31.83;;;15.20;75.60;;;;;;5055886;28;20017;-81
2022/03/29 11:38:41;;;;;;;50.70;33.35;;;15.20;76.80;;;;;;5055989;28;20108;-82
2022/03/29 11:41:23;;;;;;;47.70;33.40;;;15.20;75.40;;;;;;5055647;28;20173;-82
2022/03/29 11:43:53;;;;;;;44.75;30.40;;;15.00;76.30;;;;;;5055776;28;20060;-82
2022/03/29 11:46:19;;;;;;;46.35;31.75;;;14.90;77.90;;;;;;5055729;28;20029;-82
2022/03/29 11:48:50;;;;;;;48.83;32.75;;;15.20;76.80;;;;;;5055711;28;20032;-82
2022/03/29 11:51:16;;;;;;;46.05;31.35;;;15.30;76.10;;;;;;5055893;28;20025;-82
2022/03/29 11:53:42;;;;;;;51.35;32.00;;;15.40;75.40;;;;;;5055404;28;20094;-82
2022/03/29 11:56:18;;;;;;;48.95;33.03;;;15.50;76.40;;;;;;5055706;28;20029;-82
2022/03/29 11:58:49;;;;;;;43.28;31.77;;;15.50;75.20;;;;;;5055774;28;20033;-81
2022/03/29 12:01:22;;;;;;;45.42;30.20;;;15.40;74.80;;;;;;5054952;28;20040;-82
2022/03/29 12:04:11;;;;;;;46.30;29.67;;;15.50;76.00;;;;;;5055069;28;20025;-82
2022/03/29 12:06:50;;;;;;;52.55;31.88;;;15.80;74.20;;;;;;5053744;28;20025;-83
2022/03/29 12:09:26;;;;;;;45.13;30.80;;;16.10;72.40;;;;;;5052259;28;20128;-82
2022/03/29 12:11:56;;;;;;;44.55;31.48;;;16.10;71.90;;;;;;5055017;28;20112;-83
2022/03/29 12:14:23;;;;;;;46.63;31.60;;;16.20;72.40;;;;;;5055426;28;20025;-83
2022/03/29 12:16:54;;;;;;;41.63;30.95;;;16.20;70.40;;;;;;5054824;28;20040;-83
2022/03/29 12:19:27;;;;;;;44.35;30.85;;;16.10;70.90;;;;;;5055079;28;20105;-82
2022/03/29 12:21:59;;;;;;;42.03;28.60;;;16.20;70.10;;;;;;5054518;28;20028;-83
2022/03/29 12:24:32;;;;;;;39.37;30.20;;;16.20;70.60;;;;;;5054013;28;20017;-83
2022/03/29 12:27:04;;;;;;;37.85;28.83;;;16.30;70.90;;;;;;5054567;28;20596;-82
2022/03/29 12:29:30;;;;;;;42.88;30.10;;;16.60;70.80;;;;;;5054913;28;20029;-83
2022/03/29 12:31:56;;;;;;;37.53;27.58;;;16.80;67.70;;;;;;5054747;28;20025;-83
2022/03/29 12:34:28;;;;;;;36.05;26.73;;;16.80;67.90;;;;;;5054808;28;20550;-83
2022/03/29 12:36:59;;;;;;;39.57;27.57;;;16.90;68.10;;;;;;5054863;28;20033;-83
2022/03/29 12:39:38;;;;;;;31.05;24.35;;;17.00;67.60;;;;;;5054891;28;20037;-83
2022/03/29 12:42:08;;;;;;;36.35;25.92;;;17.30;66.90;;;;;;5054451;28;20044;-82